sensor_id;sensor_type;location;lat;lon;timestamp;P1;durP1;ratioP1;P2;durP2;ratioP2
10461;SDS011;5278;42.656;23.374;2024-02-14T00:00:03;6.77;;;5.17;;
10461;SDS011;5278;42.656;23.374;2024-02-14T00:02:31;6.53;;;5.23;;
10461;SDS011;5278;42.656;23.374;2024-02-14T00:04:58;7.33;;;5.03;;
10461;SDS011;5278;42.656;23.374;2024-02-14T00:07:25;8.60;;;5.20;;
10461;SDS011;5278;42.656;23.374;2024-02-14T00:09:52;6.37;;;5.37;;
10461;SDS011;5278;42.656;23.374;2024-02-14T00:12:19;5.73;;;5.13;;
10461;SDS011;5278;42.656;23.374;2024-02-14T00:14:46;6.60;;;5.60;;
10461;SDS011;5278;42.656;23.374;2024-02-14T00:17:15;7.07;;;5.67;;
10461;SDS011;5278;42.656;23.374;2024-02-14T00:19:41;8.03;;;6.23;;
10461;SDS011;5278;42.656;23.374;2024-02-14T00:22:08;7.40;;;5.43;;
10461;SDS011;5278;42.656;23.374;2024-02-14T00:24:35;8.63;;;6.17;;
10461;SDS011;5278;42.656;23.374;2024-02-14T00:27:02;6.00;;;5.40;;
10461;SDS011;5278;42.656;23.374;2024-02-14T00:29:29;10.00;;;6.50;;
10461;SDS011;5278;42.656;23.374;2024-02-14T00:31:56;6.03;;;5.13;;
10461;SDS011;5278;42.656;23.374;2024-02-14T00:34:24;8.70;;;6.10;;
10461;SDS011;5278;42.656;23.374;2024-02-14T00:36:50;6.87;;;5.37;;
10461;SDS011;5278;42.656;23.374;2024-02-14T00:39:17;6.40;;;5.50;;
10461;SDS011;5278;42.656;23.374;2024-02-14T00:41:46;8.17;;;6.77;;
10461;SDS011;5278;42.656;23.374;2024-02-14T00:44:13;7.83;;;6.10;;
10461;SDS011;5278;42.656;23.374;2024-02-14T00:46:41;8.93;;;6.80;;
10461;SDS011;5278;42.656;23.374;2024-02-14T00:49:08;6.77;;;6.03;;
10461;SDS011;5278;42.656;23.374;2024-02-14T00:51:37;7.63;;;6.53;;
10461;SDS011;5278;42.656;23.374;2024-02-14T00:54:05;7.10;;;5.53;;
10461;SDS011;5278;42.656;23.374;2024-02-14T00:56:31;8.07;;;6.37;;
10461;SDS011;5278;42.656;23.374;2024-02-14T00:58:58;7.97;;;6.60;;
10461;SDS011;5278;42.656;23.374;2024-02-14T01:01:25;9.13;;;6.20;;
10461;SDS011;5278;42.656;23.374;2024-02-14T01:03:51;8.80;;;7.03;;
10461;SDS011;5278;42.656;23.374;2024-02-14T01:06:18;7.53;;;6.13;;
10461;SDS011;5278;42.656;23.374;2024-02-14T01:08:46;8.60;;;6.27;;
10461;SDS011;5278;42.656;23.374;2024-02-14T01:11:13;7.00;;;5.70;;
10461;SDS011;5278;42.656;23.374;2024-02-14T01:13:40;7.70;;;6.00;;
10461;SDS011;5278;42.656;23.374;2024-02-14T01:16:06;6.97;;;5.80;;
10461;SDS011;5278;42.656;23.374;2024-02-14T01:18:34;8.73;;;6.53;;
10461;SDS011;5278;42.656;23.374;2024-02-14T01:21:02;7.40;;;6.53;;
10461;SDS011;5278;42.656;23.374;2024-02-14T01:23:28;7.30;;;5.93;;
10461;SDS011;5278;42.656;23.374;2024-02-14T01:25:56;6.23;;;5.63;;
10461;SDS011;5278;42.656;23.374;2024-02-14T01:28:23;7.13;;;6.10;;
10461;SDS011;5278;42.656;23.374;2024-02-14T01:30:52;6.80;;;5.87;;
10461;SDS011;5278;42.656;23.374;2024-02-14T01:33:19;7.23;;;6.23;;
10461;SDS011;5278;42.656;23.374;2024-02-14T01:35:46;7.90;;;6.40;;
10461;SDS011;5278;42.656;23.374;2024-02-14T01:38:12;7.63;;;6.63;;
10461;SDS011;5278;42.656;23.374;2024-02-14T01:40:42;7.97;;;6.47;;
10461;SDS011;5278;42.656;23.374;2024-02-14T01:43:09;6.97;;;5.93;;
10461;SDS011;5278;42.656;23.374;2024-02-14T01:45:37;6.87;;;6.17;;
10461;SDS011;5278;42.656;23.374;2024-02-14T01:48:04;9.13;;;7.33;;
10461;SDS011;5278;42.656;23.374;2024-02-14T01:50:32;7.13;;;6.10;;
10461;SDS011;5278;42.656;23.374;2024-02-14T01:53:00;7.27;;;6.00;;
10461;SDS011;5278;42.656;23.374;2024-02-14T01:55:28;7.33;;;6.23;;
10461;SDS011;5278;42.656;23.374;2024-02-14T01:57:54;7.13;;;6.40;;
10461;SDS011;5278;42.656;23.374;2024-02-14T02:00:23;7.67;;;6.17;;
10461;SDS011;5278;42.656;23.374;2024-02-14T02:02:51;6.90;;;6.13;;
10461;SDS011;5278;42.656;23.374;2024-02-14T02:05:18;7.47;;;6.53;;
10461;SDS011;5278;42.656;23.374;2024-02-14T02:07:46;8.37;;;7.17;;
10461;SDS011;5278;42.656;23.374;2024-02-14T02:10:13;8.03;;;6.30;;
10461;SDS011;5278;42.656;23.374;2024-02-14T02:12:40;9.47;;;7.33;;
10461;SDS011;5278;42.656;23.374;2024-02-14T02:15:07;9.63;;;7.27;;
10461;SDS011;5278;42.656;23.374;2024-02-14T02:17:37;7.57;;;6.00;;
10461;SDS011;5278;42.656;23.374;2024-02-14T02:20:04;8.47;;;6.33;;
10461;SDS011;5278;42.656;23.374;2024-02-14T02:22:33;7.97;;;6.50;;
10461;SDS011;5278;42.656;23.374;2024-02-14T02:25:03;7.80;;;6.40;;
10461;SDS011;5278;42.656;23.374;2024-02-14T02:27:32;8.07;;;6.43;;
10461;SDS011;5278;42.656;23.374;2024-02-14T02:30:00;7.30;;;6.50;;
10461;SDS011;5278;42.656;23.374;2024-02-14T02:32:29;7.43;;;6.63;;
10461;SDS011;5278;42.656;23.374;2024-02-14T02:34:56;7.27;;;6.20;;
10461;SDS011;5278;42.656;23.374;2024-02-14T02:37:23;7.07;;;5.90;;
10461;SDS011;5278;42.656;23.374;2024-02-14T02:39:50;9.27;;;7.10;;
10461;SDS011;5278;42.656;23.374;2024-02-14T02:42:18;7.93;;;6.10;;
10461;SDS011;5278;42.656;23.374;2024-02-14T02:44:46;7.90;;;6.33;;
10461;SDS011;5278;42.656;23.374;2024-02-14T02:47:13;8.67;;;6.13;;
10461;SDS011;5278;42.656;23.374;2024-02-14T02:49:42;8.90;;;6.67;;
10461;SDS011;5278;42.656;23.374;2024-02-14T02:52:09;7.60;;;6.67;;
10461;SDS011;5278;42.656;23.374;2024-02-14T02:54:36;8.50;;;6.63;;
10461;SDS011;5278;42.656;23.374;2024-02-14T02:57:05;8.87;;;6.70;;
10461;SDS011;5278;42.656;23.374;2024-02-14T02:59:34;8.97;;;7.30;;
10461;SDS011;5278;42.656;23.374;2024-02-14T03:02:01;7.03;;;6.10;;
10461;SDS011;5278;42.656;23.374;2024-02-14T03:04:27;9.27;;;7.07;;
10461;SDS011;5278;42.656;23.374;2024-02-14T03:06:56;8.77;;;7.00;;
10461;SDS011;5278;42.656;23.374;2024-02-14T03:09:23;8.73;;;6.93;;
10461;SDS011;5278;42.656;23.374;2024-02-14T03:11:51;8.20;;;7.33;;
10461;SDS011;5278;42.656;23.374;2024-02-14T03:14:19;8.03;;;7.17;;
10461;SDS011;5278;42.656;23.374;2024-02-14T03:16:47;8.33;;;7.07;;
10461;SDS011;5278;42.656;23.374;2024-02-14T03:19:13;10.17;;;6.63;;
10461;SDS011;5278;42.656;23.374;2024-02-14T03:21:40;8.77;;;7.23;;
10461;SDS011;5278;42.656;23.374;2024-02-14T03:24:08;7.73;;;6.53;;
10461;SDS011;5278;42.656;23.374;2024-02-14T03:26:35;7.70;;;6.90;;
10461;SDS011;5278;42.656;23.374;2024-02-14T03:29:03;8.97;;;7.47;;
10461;SDS011;5278;42.656;23.374;2024-02-14T03:31:31;8.83;;;7.50;;
10461;SDS011;5278;42.656;23.374;2024-02-14T03:33:59;8.53;;;7.63;;
10461;SDS011;5278;42.656;23.374;2024-02-14T03:36:26;9.43;;;7.37;;
10461;SDS011;5278;42.656;23.374;2024-02-14T03:38:55;9.80;;;7.13;;
10461;SDS011;5278;42.656;23.374;2024-02-14T03:41:22;9.23;;;7.07;;
10461;SDS011;5278;42.656;23.374;2024-02-14T03:43:49;9.17;;;7.13;;
10461;SDS011;5278;42.656;23.374;2024-02-14T03:46:18;9.03;;;6.77;;
10461;SDS011;5278;42.656;23.374;2024-02-14T03:48:46;9.10;;;6.67;;
10461;SDS011;5278;42.656;23.374;2024-02-14T03:51:15;8.30;;;7.43;;
10461;SDS011;5278;42.656;23.374;2024-02-14T03:53:42;10.00;;;7.43;;
10461;SDS011;5278;42.656;23.374;2024-02-14T03:56:09;8.20;;;7.33;;
10461;SDS011;5278;42.656;23.374;2024-02-14T03:58:37;8.40;;;6.77;;
10461;SDS011;5278;42.656;23.374;2024-02-14T04:01:04;7.30;;;6.53;;
10461;SDS011;5278;42.656;23.374;2024-02-14T04:03:31;9.30;;;7.13;;
10461;SDS011;5278;42.656;23.374;2024-02-14T04:05:58;8.03;;;6.60;;
10461;SDS011;5278;42.656;23.374;2024-02-14T04:08:27;8.60;;;7.10;;
10461;SDS011;5278;42.656;23.374;2024-02-14T04:10:54;9.37;;;7.57;;
10461;SDS011;5278;42.656;23.374;2024-02-14T04:13:21;8.77;;;7.70;;
10461;SDS011;5278;42.656;23.374;2024-02-14T04:15:48;8.03;;;7.17;;
10461;SDS011;5278;42.656;23.374;2024-02-14T04:18:15;8.70;;;7.67;;
10461;SDS011;5278;42.656;23.374;2024-02-14T04:20:43;9.57;;;7.77;;
10461;SDS011;5278;42.656;23.374;2024-02-14T04:23:10;10.63;;;8.00;;
10461;SDS011;5278;42.656;23.374;2024-02-14T04:25:38;10.20;;;7.67;;
10461;SDS011;5278;42.656;23.374;2024-02-14T04:28:05;9.37;;;7.43;;
10461;SDS011;5278;42.656;23.374;2024-02-14T04:30:32;8.90;;;8.00;;
10461;SDS011;5278;42.656;23.374;2024-02-14T04:33:00;10.00;;;7.83;;
10461;SDS011;5278;42.656;23.374;2024-02-14T04:35:27;9.30;;;7.67;;
10461;SDS011;5278;42.656;23.374;2024-02-14T04:37:54;8.60;;;7.70;;
10461;SDS011;5278;42.656;23.374;2024-02-14T04:40:22;13.67;;;8.23;;
10461;SDS011;5278;42.656;23.374;2024-02-14T04:42:50;8.73;;;7.67;;
10461;SDS011;5278;42.656;23.374;2024-02-14T04:45:17;9.33;;;8.33;;
10461;SDS011;5278;42.656;23.374;2024-02-14T04:47:44;8.70;;;7.40;;
10461;SDS011;5278;42.656;23.374;2024-02-14T04:50:11;9.20;;;7.27;;
10461;SDS011;5278;42.656;23.374;2024-02-14T04:52:39;11.13;;;9.47;;
10461;SDS011;5278;42.656;23.374;2024-02-14T04:55:06;10.33;;;8.03;;
10461;SDS011;5278;42.656;23.374;2024-02-14T04:57:33;10.43;;;7.77;;
10461;SDS011;5278;42.656;23.374;2024-02-14T05:00:03;10.90;;;9.47;;
10461;SDS011;5278;42.656;23.374;2024-02-14T05:02:31;10.50;;;9.00;;
10461;SDS011;5278;42.656;23.374;2024-02-14T05:04:58;9.67;;;8.17;;
10461;SDS011;5278;42.656;23.374;2024-02-14T05:07:24;11.77;;;9.33;;
10461;SDS011;5278;42.656;23.374;2024-02-14T05:09:51;11.77;;;9.60;;
10461;SDS011;5278;42.656;23.374;2024-02-14T05:12:20;11.57;;;9.23;;
10461;SDS011;5278;42.656;23.374;2024-02-14T05:14:47;11.43;;;9.53;;
10461;SDS011;5278;42.656;23.374;2024-02-14T05:17:15;12.67;;;10.17;;
10461;SDS011;5278;42.656;23.374;2024-02-14T05:19:42;15.57;;;11.10;;
10461;SDS011;5278;42.656;23.374;2024-02-14T05:22:09;12.83;;;9.20;;
10461;SDS011;5278;42.656;23.374;2024-02-14T05:24:36;11.87;;;9.60;;
10461;SDS011;5278;42.656;23.374;2024-02-14T05:27:03;13.50;;;9.97;;
10461;SDS011;5278;42.656;23.374;2024-02-14T05:29:30;11.33;;;9.60;;
10461;SDS011;5278;42.656;23.374;2024-02-14T05:31:57;12.50;;;10.40;;
10461;SDS011;5278;42.656;23.374;2024-02-14T05:34:25;13.53;;;10.40;;
10461;SDS011;5278;42.656;23.374;2024-02-14T05:36:52;13.77;;;10.20;;
10461;SDS011;5278;42.656;23.374;2024-02-14T05:39:19;11.73;;;10.40;;
10461;SDS011;5278;42.656;23.374;2024-02-14T05:41:46;14.13;;;10.33;;
10461;SDS011;5278;42.656;23.374;2024-02-14T05:44:14;11.87;;;10.60;;
10461;SDS011;5278;42.656;23.374;2024-02-14T05:46:41;11.43;;;10.23;;
10461;SDS011;5278;42.656;23.374;2024-02-14T05:49:08;13.43;;;9.50;;
10461;SDS011;5278;42.656;23.374;2024-02-14T05:51:36;12.00;;;9.83;;
10461;SDS011;5278;42.656;23.374;2024-02-14T05:54:02;13.67;;;10.90;;
10461;SDS011;5278;42.656;23.374;2024-02-14T05:56:29;10.97;;;9.63;;
10461;SDS011;5278;42.656;23.374;2024-02-14T05:58:56;13.27;;;10.43;;
10461;SDS011;5278;42.656;23.374;2024-02-14T06:01:22;11.60;;;9.87;;
10461;SDS011;5278;42.656;23.374;2024-02-14T06:03:49;11.60;;;9.43;;
10461;SDS011;5278;42.656;23.374;2024-02-14T06:06:16;13.83;;;9.83;;
10461;SDS011;5278;42.656;23.374;2024-02-14T06:08:44;12.23;;;9.93;;
10461;SDS011;5278;42.656;23.374;2024-02-14T06:11:10;11.80;;;9.40;;
10461;SDS011;5278;42.656;23.374;2024-02-14T06:13:39;12.73;;;10.33;;
10461;SDS011;5278;42.656;23.374;2024-02-14T06:16:06;14.10;;;10.43;;
10461;SDS011;5278;42.656;23.374;2024-02-14T06:18:33;12.83;;;9.67;;
10461;SDS011;5278;42.656;23.374;2024-02-14T06:21:00;11.90;;;9.70;;
10461;SDS011;5278;42.656;23.374;2024-02-14T06:23:27;11.70;;;10.17;;
10461;SDS011;5278;42.656;23.374;2024-02-14T06:25:55;12.13;;;9.63;;
10461;SDS011;5278;42.656;23.374;2024-02-14T06:28:22;13.70;;;9.30;;
10461;SDS011;5278;42.656;23.374;2024-02-14T06:30:48;12.87;;;9.93;;
10461;SDS011;5278;42.656;23.374;2024-02-14T06:33:15;12.07;;;9.60;;
10461;SDS011;5278;42.656;23.374;2024-02-14T06:35:42;13.03;;;9.97;;
10461;SDS011;5278;42.656;23.374;2024-02-14T06:38:08;10.37;;;8.87;;
10461;SDS011;5278;42.656;23.374;2024-02-14T06:40:35;10.70;;;9.43;;
10461;SDS011;5278;42.656;23.374;2024-02-14T06:43:03;13.20;;;8.83;;
10461;SDS011;5278;42.656;23.374;2024-02-14T06:45:31;9.67;;;8.17;;
10461;SDS011;5278;42.656;23.374;2024-02-14T06:47:58;9.10;;;8.00;;
10461;SDS011;5278;42.656;23.374;2024-02-14T06:50:25;10.47;;;8.87;;
10461;SDS011;5278;42.656;23.374;2024-02-14T06:52:52;11.20;;;8.43;;
10461;SDS011;5278;42.656;23.374;2024-02-14T06:55:19;9.87;;;8.50;;
10461;SDS011;5278;42.656;23.374;2024-02-14T06:57:46;10.73;;;8.87;;
10461;SDS011;5278;42.656;23.374;2024-02-14T07:00:14;11.77;;;9.13;;
10461;SDS011;5278;42.656;23.374;2024-02-14T07:02:41;12.70;;;9.20;;
10461;SDS011;5278;42.656;23.374;2024-02-14T07:05:09;10.47;;;8.80;;
10461;SDS011;5278;42.656;23.374;2024-02-14T07:07:37;9.53;;;8.00;;
10461;SDS011;5278;42.656;23.374;2024-02-14T07:10:04;10.07;;;7.90;;
10461;SDS011;5278;42.656;23.374;2024-02-14T07:12:32;9.83;;;8.27;;
10461;SDS011;5278;42.656;23.374;2024-02-14T07:14:58;11.43;;;8.87;;
10461;SDS011;5278;42.656;23.374;2024-02-14T07:17:26;10.10;;;7.97;;
10461;SDS011;5278;42.656;23.374;2024-02-14T07:19:53;9.83;;;8.03;;
10461;SDS011;5278;42.656;23.374;2024-02-14T07:22:20;10.83;;;9.17;;
10461;SDS011;5278;42.656;23.374;2024-02-14T07:24:47;10.70;;;7.93;;
10461;SDS011;5278;42.656;23.374;2024-02-14T07:27:14;10.63;;;8.80;;
10461;SDS011;5278;42.656;23.374;2024-02-14T07:29:41;9.67;;;7.07;;
10461;SDS011;5278;42.656;23.374;2024-02-14T07:32:09;8.07;;;7.27;;
10461;SDS011;5278;42.656;23.374;2024-02-14T07:34:39;14.13;;;6.80;;
10461;SDS011;5278;42.656;23.374;2024-02-14T07:37:05;8.77;;;7.07;;
10461;SDS011;5278;42.656;23.374;2024-02-14T07:39:32;10.20;;;6.87;;
10461;SDS011;5278;42.656;23.374;2024-02-14T07:42:00;10.33;;;7.80;;
10461;SDS011;5278;42.656;23.374;2024-02-14T07:44:26;10.07;;;7.83;;
10461;SDS011;5278;42.656;23.374;2024-02-14T07:46:53;7.83;;;6.60;;
10461;SDS011;5278;42.656;23.374;2024-02-14T07:49:20;8.53;;;6.93;;
10461;SDS011;5278;42.656;23.374;2024-02-14T07:51:48;7.73;;;6.87;;
10461;SDS011;5278;42.656;23.374;2024-02-14T07:54:15;7.93;;;6.70;;
10461;SDS011;5278;42.656;23.374;2024-02-14T07:56:41;8.77;;;6.83;;
10461;SDS011;5278;42.656;23.374;2024-02-14T07:59:08;8.07;;;6.83;;
10461;SDS011;5278;42.656;23.374;2024-02-14T08:01:35;9.67;;;7.73;;
10461;SDS011;5278;42.656;23.374;2024-02-14T08:04:01;8.50;;;6.40;;
10461;SDS011;5278;42.656;23.374;2024-02-14T08:06:29;8.10;;;6.90;;
10461;SDS011;5278;42.656;23.374;2024-02-14T08:08:57;9.20;;;7.57;;
10461;SDS011;5278;42.656;23.374;2024-02-14T08:11:27;8.23;;;6.93;;
10461;SDS011;5278;42.656;23.374;2024-02-14T08:13:54;7.97;;;6.40;;
10461;SDS011;5278;42.656;23.374;2024-02-14T08:16:21;8.27;;;6.73;;
10461;SDS011;5278;42.656;23.374;2024-02-14T08:18:47;12.87;;;7.00;;
10461;SDS011;5278;42.656;23.374;2024-02-14T08:21:15;10.03;;;6.43;;
10461;SDS011;5278;42.656;23.374;2024-02-14T08:23:42;8.00;;;6.83;;
10461;SDS011;5278;42.656;23.374;2024-02-14T08:26:10;10.57;;;7.23;;
10461;SDS011;5278;42.656;23.374;2024-02-14T08:28:37;12.13;;;7.43;;
10461;SDS011;5278;42.656;23.374;2024-02-14T08:31:09;9.73;;;7.00;;
10461;SDS011;5278;42.656;23.374;2024-02-14T08:33:36;7.70;;;6.50;;
10461;SDS011;5278;42.656;23.374;2024-02-14T08:36:04;10.57;;;6.70;;
10461;SDS011;5278;42.656;23.374;2024-02-14T08:38:32;7.47;;;6.30;;
10461;SDS011;5278;42.656;23.374;2024-02-14T08:40:59;8.60;;;6.77;;
10461;SDS011;5278;42.656;23.374;2024-02-14T08:43:28;7.23;;;6.40;;
10461;SDS011;5278;42.656;23.374;2024-02-14T08:45:54;9.13;;;6.60;;
10461;SDS011;5278;42.656;23.374;2024-02-14T08:48:21;9.07;;;7.50;;
10461;SDS011;5278;42.656;23.374;2024-02-14T08:50:48;9.30;;;8.27;;
10461;SDS011;5278;42.656;23.374;2024-02-14T08:53:15;8.00;;;7.20;;
10461;SDS011;5278;42.656;23.374;2024-02-14T08:55:42;8.47;;;6.47;;
10461;SDS011;5278;42.656;23.374;2024-02-14T08:58:09;8.53;;;6.57;;
10461;SDS011;5278;42.656;23.374;2024-02-14T09:00:37;7.33;;;6.30;;
10461;SDS011;5278;42.656;23.374;2024-02-14T09:03:05;9.43;;;6.63;;
10461;SDS011;5278;42.656;23.374;2024-02-14T09:05:32;11.13;;;7.17;;
10461;SDS011;5278;42.656;23.374;2024-02-14T09:07:59;8.10;;;7.00;;
10461;SDS011;5278;42.656;23.374;2024-02-14T09:10:26;9.27;;;6.83;;
10461;SDS011;5278;42.656;23.374;2024-02-14T09:12:53;8.77;;;7.07;;
10461;SDS011;5278;42.656;23.374;2024-02-14T09:15:20;10.33;;;6.23;;
10461;SDS011;5278;42.656;23.374;2024-02-14T09:17:48;8.03;;;6.20;;
10461;SDS011;5278;42.656;23.374;2024-02-14T09:20:14;9.63;;;6.50;;
10461;SDS011;5278;42.656;23.374;2024-02-14T09:22:41;6.57;;;5.93;;
10461;SDS011;5278;42.656;23.374;2024-02-14T09:25:08;6.80;;;6.07;;
10461;SDS011;5278;42.656;23.374;2024-02-14T09:27:35;8.13;;;6.93;;
10461;SDS011;5278;42.656;23.374;2024-02-14T09:30:02;8.83;;;6.80;;
10461;SDS011;5278;42.656;23.374;2024-02-14T09:32:29;8.33;;;6.33;;
10461;SDS011;5278;42.656;23.374;2024-02-14T09:34:58;7.80;;;6.97;;
10461;SDS011;5278;42.656;23.374;2024-02-14T09:37:27;8.53;;;7.20;;
10461;SDS011;5278;42.656;23.374;2024-02-14T09:39:54;8.33;;;7.07;;
10461;SDS011;5278;42.656;23.374;2024-02-14T09:42:22;9.43;;;6.77;;
10461;SDS011;5278;42.656;23.374;2024-02-14T09:44:57;7.43;;;6.57;;
10461;SDS011;5278;42.656;23.374;2024-02-14T09:47:25;8.30;;;6.67;;
10461;SDS011;5278;42.656;23.374;2024-02-14T09:49:59;7.60;;;6.57;;
10461;SDS011;5278;42.656;23.374;2024-02-14T09:52:28;8.07;;;6.37;;
10461;SDS011;5278;42.656;23.374;2024-02-14T09:54:55;8.60;;;6.80;;
10461;SDS011;5278;42.656;23.374;2024-02-14T09:57:22;8.07;;;6.63;;
10461;SDS011;5278;42.656;23.374;2024-02-14T09:59:51;7.73;;;6.87;;
10461;SDS011;5278;42.656;23.374;2024-02-14T10:02:19;7.13;;;6.30;;
10461;SDS011;5278;42.656;23.374;2024-02-14T10:04:46;8.03;;;6.53;;
10461;SDS011;5278;42.656;23.374;2024-02-14T10:07:14;7.63;;;6.47;;
10461;SDS011;5278;42.656;23.374;2024-02-14T10:09:41;8.47;;;6.30;;
10461;SDS011;5278;42.656;23.374;2024-02-14T10:12:08;7.30;;;6.53;;
10461;SDS011;5278;42.656;23.374;2024-02-14T10:14:35;10.43;;;7.30;;
10461;SDS011;5278;42.656;23.374;2024-02-14T10:17:02;8.93;;;7.03;;
10461;SDS011;5278;42.656;23.374;2024-02-14T10:19:29;7.50;;;6.17;;
10461;SDS011;5278;42.656;23.374;2024-02-14T10:21:56;8.53;;;7.10;;
10461;SDS011;5278;42.656;23.374;2024-02-14T10:24:25;8.97;;;6.57;;
10461;SDS011;5278;42.656;23.374;2024-02-14T10:26:52;8.13;;;6.57;;
10461;SDS011;5278;42.656;23.374;2024-02-14T10:29:22;10.93;;;6.87;;
10461;SDS011;5278;42.656;23.374;2024-02-14T10:31:49;11.47;;;6.67;;
10461;SDS011;5278;42.656;23.374;2024-02-14T10:34:16;7.23;;;6.53;;
10461;SDS011;5278;42.656;23.374;2024-02-14T10:36:45;7.40;;;6.70;;
10461;SDS011;5278;42.656;23.374;2024-02-14T10:39:12;7.00;;;6.30;;
10461;SDS011;5278;42.656;23.374;2024-02-14T10:41:42;7.77;;;6.07;;
10461;SDS011;5278;42.656;23.374;2024-02-14T10:44:09;7.53;;;6.00;;
10461;SDS011;5278;42.656;23.374;2024-02-14T10:46:37;7.47;;;5.93;;
10461;SDS011;5278;42.656;23.374;2024-02-14T10:49:06;7.60;;;6.10;;
10461;SDS011;5278;42.656;23.374;2024-02-14T10:51:36;9.57;;;6.70;;
10461;SDS011;5278;42.656;23.374;2024-02-14T10:54:08;7.63;;;6.47;;
10461;SDS011;5278;42.656;23.374;2024-02-14T10:56:37;7.50;;;6.37;;
10461;SDS011;5278;42.656;23.374;2024-02-14T10:59:08;9.67;;;6.10;;
10461;SDS011;5278;42.656;23.374;2024-02-14T11:01:38;10.47;;;6.17;;
10461;SDS011;5278;42.656;23.374;2024-02-14T11:04:06;8.07;;;6.73;;
10461;SDS011;5278;42.656;23.374;2024-02-14T11:06:43;9.17;;;6.37;;
10461;SDS011;5278;42.656;23.374;2024-02-14T11:09:12;8.63;;;6.33;;
10461;SDS011;5278;42.656;23.374;2024-02-14T11:11:40;9.20;;;6.00;;
10461;SDS011;5278;42.656;23.374;2024-02-14T11:14:10;9.67;;;6.47;;
10461;SDS011;5278;42.656;23.374;2024-02-14T11:16:40;10.50;;;6.13;;
10461;SDS011;5278;42.656;23.374;2024-02-14T11:19:10;8.40;;;6.00;;
10461;SDS011;5278;42.656;23.374;2024-02-14T11:21:39;8.30;;;6.80;;
10461;SDS011;5278;42.656;23.374;2024-02-14T11:24:09;8.03;;;6.17;;
10461;SDS011;5278;42.656;23.374;2024-02-14T11:26:40;10.43;;;6.10;;
10461;SDS011;5278;42.656;23.374;2024-02-14T11:29:14;7.30;;;6.10;;
10461;SDS011;5278;42.656;23.374;2024-02-14T11:31:42;9.20;;;7.03;;
10461;SDS011;5278;42.656;23.374;2024-02-14T11:34:10;7.47;;;6.60;;
10461;SDS011;5278;42.656;23.374;2024-02-14T11:36:37;13.53;;;6.87;;
10461;SDS011;5278;42.656;23.374;2024-02-14T11:39:07;9.17;;;6.27;;
10461;SDS011;5278;42.656;23.374;2024-02-14T11:41:34;8.63;;;5.93;;
10461;SDS011;5278;42.656;23.374;2024-02-14T11:44:03;8.93;;;6.60;;
10461;SDS011;5278;42.656;23.374;2024-02-14T11:46:32;7.97;;;6.23;;
10461;SDS011;5278;42.656;23.374;2024-02-14T11:48:59;10.47;;;6.53;;
10461;SDS011;5278;42.656;23.374;2024-02-14T11:51:28;10.73;;;6.50;;
10461;SDS011;5278;42.656;23.374;2024-02-14T11:53:55;7.50;;;5.80;;
10461;SDS011;5278;42.656;23.374;2024-02-14T11:56:22;8.23;;;6.17;;
10461;SDS011;5278;42.656;23.374;2024-02-14T11:58:51;7.33;;;6.60;;
10461;SDS011;5278;42.656;23.374;2024-02-14T12:01:18;8.27;;;7.20;;
10461;SDS011;5278;42.656;23.374;2024-02-14T12:03:46;9.77;;;6.70;;
10461;SDS011;5278;42.656;23.374;2024-02-14T12:06:15;9.03;;;6.83;;
10461;SDS011;5278;42.656;23.374;2024-02-14T12:08:42;8.40;;;6.30;;
10461;SDS011;5278;42.656;23.374;2024-02-14T12:11:09;9.37;;;6.27;;
10461;SDS011;5278;42.656;23.374;2024-02-14T12:13:36;6.37;;;5.53;;
10461;SDS011;5278;42.656;23.374;2024-02-14T12:16:03;7.83;;;5.67;;
10461;SDS011;5278;42.656;23.374;2024-02-14T12:18:33;6.13;;;5.33;;
10461;SDS011;5278;42.656;23.374;2024-02-14T12:21:05;7.17;;;5.60;;
10461;SDS011;5278;42.656;23.374;2024-02-14T12:23:33;7.30;;;5.90;;
10461;SDS011;5278;42.656;23.374;2024-02-14T12:26:01;6.27;;;5.17;;
10461;SDS011;5278;42.656;23.374;2024-02-14T12:28:29;9.10;;;5.63;;
10461;SDS011;5278;42.656;23.374;2024-02-14T12:30:56;5.57;;;5.07;;
10461;SDS011;5278;42.656;23.374;2024-02-14T12:33:24;6.53;;;5.30;;
10461;SDS011;5278;42.656;23.374;2024-02-14T12:35:52;6.20;;;5.27;;
10461;SDS011;5278;42.656;23.374;2024-02-14T12:38:21;7.73;;;5.37;;
10461;SDS011;5278;42.656;23.374;2024-02-14T12:40:49;9.63;;;5.43;;
10461;SDS011;5278;42.656;23.374;2024-02-14T12:43:19;5.50;;;4.80;;
10461;SDS011;5278;42.656;23.374;2024-02-14T12:45:46;6.40;;;4.70;;
10461;SDS011;5278;42.656;23.374;2024-02-14T12:48:21;6.50;;;4.90;;
10461;SDS011;5278;42.656;23.374;2024-02-14T12:50:49;10.03;;;5.83;;
10461;SDS011;5278;42.656;23.374;2024-02-14T12:53:17;8.50;;;6.10;;
10461;SDS011;5278;42.656;23.374;2024-02-14T12:55:46;7.17;;;5.93;;
10461;SDS011;5278;42.656;23.374;2024-02-14T12:58:13;6.50;;;4.90;;
10461;SDS011;5278;42.656;23.374;2024-02-14T13:00:39;5.73;;;5.23;;
10461;SDS011;5278;42.656;23.374;2024-02-14T13:03:08;6.37;;;5.77;;
10461;SDS011;5278;42.656;23.374;2024-02-14T13:05:36;6.20;;;5.13;;
10461;SDS011;5278;42.656;23.374;2024-02-14T13:08:02;6.87;;;5.20;;
10461;SDS011;5278;42.656;23.374;2024-02-14T13:10:30;10.37;;;5.47;;
10461;SDS011;5278;42.656;23.374;2024-02-14T13:12:59;6.50;;;5.03;;
10461;SDS011;5278;42.656;23.374;2024-02-14T13:15:25;5.87;;;4.97;;
10461;SDS011;5278;42.656;23.374;2024-02-14T13:17:52;8.80;;;6.03;;
10461;SDS011;5278;42.656;23.374;2024-02-14T13:20:19;6.17;;;5.20;;
10461;SDS011;5278;42.656;23.374;2024-02-14T13:22:45;6.67;;;4.83;;
10461;SDS011;5278;42.656;23.374;2024-02-14T13:25:12;7.27;;;6.10;;
10461;SDS011;5278;42.656;23.374;2024-02-14T13:27:39;6.33;;;5.30;;
10461;SDS011;5278;42.656;23.374;2024-02-14T13:30:08;8.83;;;6.37;;
10461;SDS011;5278;42.656;23.374;2024-02-14T13:32:35;7.77;;;5.80;;
10461;SDS011;5278;42.656;23.374;2024-02-14T13:35:02;7.27;;;5.90;;
10461;SDS011;5278;42.656;23.374;2024-02-14T13:37:30;8.27;;;5.97;;
10461;SDS011;5278;42.656;23.374;2024-02-14T13:39:57;6.87;;;6.13;;
10461;SDS011;5278;42.656;23.374;2024-02-14T13:42:24;8.17;;;6.10;;
10461;SDS011;5278;42.656;23.374;2024-02-14T13:44:51;8.37;;;5.57;;
10461;SDS011;5278;42.656;23.374;2024-02-14T13:47:20;7.37;;;5.03;;
10461;SDS011;5278;42.656;23.374;2024-02-14T13:49:48;7.10;;;5.27;;
10461;SDS011;5278;42.656;23.374;2024-02-14T13:52:14;9.33;;;6.40;;
10461;SDS011;5278;42.656;23.374;2024-02-14T13:54:42;8.43;;;5.83;;
10461;SDS011;5278;42.656;23.374;2024-02-14T13:57:10;7.67;;;6.33;;
10461;SDS011;5278;42.656;23.374;2024-02-14T13:59:36;8.73;;;5.73;;
10461;SDS011;5278;42.656;23.374;2024-02-14T14:02:03;8.43;;;6.67;;
10461;SDS011;5278;42.656;23.374;2024-02-14T14:04:31;9.17;;;5.80;;
10461;SDS011;5278;42.656;23.374;2024-02-14T14:07:00;6.37;;;5.60;;
10461;SDS011;5278;42.656;23.374;2024-02-14T14:09:29;8.13;;;6.23;;
10461;SDS011;5278;42.656;23.374;2024-02-14T14:11:57;8.70;;;5.53;;
10461;SDS011;5278;42.656;23.374;2024-02-14T14:14:24;16.20;;;7.33;;
10461;SDS011;5278;42.656;23.374;2024-02-14T14:16:51;11.57;;;6.43;;
10461;SDS011;5278;42.656;23.374;2024-02-14T14:19:18;10.10;;;5.70;;
10461;SDS011;5278;42.656;23.374;2024-02-14T14:21:46;11.00;;;5.70;;
10461;SDS011;5278;42.656;23.374;2024-02-14T14:24:13;5.90;;;5.30;;
10461;SDS011;5278;42.656;23.374;2024-02-14T14:26:40;10.63;;;5.93;;
10461;SDS011;5278;42.656;23.374;2024-02-14T14:29:07;9.63;;;6.17;;
10461;SDS011;5278;42.656;23.374;2024-02-14T14:31:34;9.50;;;6.00;;
10461;SDS011;5278;42.656;23.374;2024-02-14T14:34:01;9.30;;;6.07;;
10461;SDS011;5278;42.656;23.374;2024-02-14T14:36:27;9.03;;;5.37;;
10461;SDS011;5278;42.656;23.374;2024-02-14T14:38:55;9.87;;;6.17;;
10461;SDS011;5278;42.656;23.374;2024-02-14T14:41:25;8.30;;;5.90;;
10461;SDS011;5278;42.656;23.374;2024-02-14T14:43:53;9.20;;;5.60;;